sensor_id;sensor_type;location;lat;lon;timestamp;P1;durP1;ratioP1;P2;durP2;ratioP2
22648;SDS011;11491;41.942;24.220;2023-03-19T00:02:24;55.13;;;30.67;;
22648;SDS011;11491;41.942;24.220;2023-03-19T00:04:50;53.70;;;28.25;;
22648;SDS011;11491;41.942;24.220;2023-03-19T00:07:17;49.25;;;26.20;;
22648;SDS011;11491;41.942;24.220;2023-03-19T00:09:44;48.22;;;24.35;;
22648;SDS011;11491;41.942;24.220;2023-03-19T00:12:13;52.40;;;26.92;;
22648;SDS011;11491;41.942;24.220;2023-03-19T00:14:40;44.60;;;24.95;;
22648;SDS011;11491;41.942;24.220;2023-03-19T00:17:07;38.97;;;23.42;;
22648;SDS011;11491;41.942;24.220;2023-03-19T00:19:34;38.90;;;20.58;;
22648;SDS011;11491;41.942;24.220;2023-03-19T00:22:01;33.80;;;19.55;;
22648;SDS011;11491;41.942;24.220;2023-03-19T00:24:27;30.48;;;18.35;;
22648;SDS011;11491;41.942;24.220;2023-03-19T00:26:54;30.42;;;17.83;;
22648;SDS011;11491;41.942;24.220;2023-03-19T00:29:23;33.78;;;18.27;;
22648;SDS011;11491;41.942;24.220;2023-03-19T00:31:50;41.05;;;20.77;;
22648;SDS011;11491;41.942;24.220;2023-03-19T00:34:17;38.47;;;20.90;;
22648;SDS011;11491;41.942;24.220;2023-03-19T00:36:44;34.65;;;18.13;;
22648;SDS011;11491;41.942;24.220;2023-03-19T00:39:11;24.70;;;14.48;;
22648;SDS011;11491;41.942;24.220;2023-03-19T00:41:37;22.45;;;12.27;;
22648;SDS011;11491;41.942;24.220;2023-03-19T00:44:04;20.15;;;10.38;;
22648;SDS011;11491;41.942;24.220;2023-03-19T00:46:33;21.70;;;11.75;;
22648;SDS011;11491;41.942;24.220;2023-03-19T00:49:00;21.77;;;12.48;;
22648;SDS011;11491;41.942;24.220;2023-03-19T00:51:28;24.52;;;14.30;;
22648;SDS011;11491;41.942;24.220;2023-03-19T00:53:54;27.00;;;15.82;;
22648;SDS011;11491;41.942;24.220;2023-03-19T00:56:21;25.33;;;16.13;;
22648;SDS011;11491;41.942;24.220;2023-03-19T00:58:48;29.65;;;15.52;;
22648;SDS011;11491;41.942;24.220;2023-03-19T01:01:15;27.70;;;15.20;;
22648;SDS011;11491;41.942;24.220;2023-03-19T01:03:44;28.38;;;15.23;;
22648;SDS011;11491;41.942;24.220;2023-03-19T01:06:11;29.05;;;15.32;;
22648;SDS011;11491;41.942;24.220;2023-03-19T01:08:38;18.42;;;11.57;;
22648;SDS011;11491;41.942;24.220;2023-03-19T01:11:06;18.70;;;12.27;;
22648;SDS011;11491;41.942;24.220;2023-03-19T01:13:34;17.70;;;10.45;;
22648;SDS011;11491;41.942;24.220;2023-03-19T01:16:01;23.50;;;12.38;;
22648;SDS011;11491;41.942;24.220;2023-03-19T01:18:28;21.88;;;12.43;;
22648;SDS011;11491;41.942;24.220;2023-03-19T01:20:57;30.63;;;16.25;;
22648;SDS011;11491;41.942;24.220;2023-03-19T01:23:24;23.00;;;13.18;;
22648;SDS011;11491;41.942;24.220;2023-03-19T01:25:51;23.75;;;14.20;;
22648;SDS011;11491;41.942;24.220;2023-03-19T01:28:17;23.05;;;15.02;;
22648;SDS011;11491;41.942;24.220;2023-03-19T01:30:44;29.67;;;16.83;;
22648;SDS011;11491;41.942;24.220;2023-03-19T01:33:11;28.23;;;17.85;;
22648;SDS011;11491;41.942;24.220;2023-03-19T01:35:38;28.48;;;18.60;;
22648;SDS011;11491;41.942;24.220;2023-03-19T01:38:06;31.27;;;19.20;;
22648;SDS011;11491;41.942;24.220;2023-03-19T01:40:33;24.50;;;15.73;;
22648;SDS011;11491;41.942;24.220;2023-03-19T01:43:11;20.48;;;13.48;;
22648;SDS011;11491;41.942;24.220;2023-03-19T01:45:40;23.45;;;14.07;;
22648;SDS011;11491;41.942;24.220;2023-03-19T01:48:08;15.65;;;9.68;;
22648;SDS011;11491;41.942;24.220;2023-03-19T01:50:43;16.42;;;10.38;;
22648;SDS011;11491;41.942;24.220;2023-03-19T01:53:12;19.88;;;10.93;;
22648;SDS011;11491;41.942;24.220;2023-03-19T01:55:42;14.70;;;8.57;;
22648;SDS011;11491;41.942;24.220;2023-03-19T01:58:12;16.70;;;9.07;;
22648;SDS011;11491;41.942;24.220;2023-03-19T02:00:39;17.85;;;9.02;;
22648;SDS011;11491;41.942;24.220;2023-03-19T02:03:06;13.68;;;8.30;;
22648;SDS011;11491;41.942;24.220;2023-03-19T02:05:33;14.60;;;8.30;;
22648;SDS011;11491;41.942;24.220;2023-03-19T02:08:04;15.47;;;8.73;;
22648;SDS011;11491;41.942;24.220;2023-03-19T02:10:34;17.73;;;9.80;;
22648;SDS011;11491;41.942;24.220;2023-03-19T02:13:02;27.50;;;12.17;;
22648;SDS011;11491;41.942;24.220;2023-03-19T02:15:29;31.58;;;14.63;;
22648;SDS011;11491;41.942;24.220;2023-03-19T02:17:55;53.03;;;24.27;;
22648;SDS011;11491;41.942;24.220;2023-03-19T02:20:23;25.40;;;13.47;;
22648;SDS011;11491;41.942;24.220;2023-03-19T02:22:57;23.17;;;13.07;;
22648;SDS011;11491;41.942;24.220;2023-03-19T02:25:31;24.98;;;15.10;;
22648;SDS011;11491;41.942;24.220;2023-03-19T02:28:06;18.73;;;11.60;;
22648;SDS011;11491;41.942;24.220;2023-03-19T02:30:35;19.52;;;11.63;;
22648;SDS011;11491;41.942;24.220;2023-03-19T02:33:02;21.13;;;12.75;;
22648;SDS011;11491;41.942;24.220;2023-03-19T02:35:30;22.00;;;12.70;;
22648;SDS011;11491;41.942;24.220;2023-03-19T02:37:59;21.02;;;12.38;;
22648;SDS011;11491;41.942;24.220;2023-03-19T02:40:29;28.75;;;14.38;;
22648;SDS011;11491;41.942;24.220;2023-03-19T02:42:59;29.92;;;14.52;;
22648;SDS011;11491;41.942;24.220;2023-03-19T02:45:28;30.52;;;16.40;;
22648;SDS011;11491;41.942;24.220;2023-03-19T02:47:56;37.67;;;19.95;;
22648;SDS011;11491;41.942;24.220;2023-03-19T02:50:24;28.88;;;17.48;;
22648;SDS011;11491;41.942;24.220;2023-03-19T02:52:51;38.00;;;18.65;;
22648;SDS011;11491;41.942;24.220;2023-03-19T02:55:18;37.80;;;20.38;;
22648;SDS011;11491;41.942;24.220;2023-03-19T02:57:46;46.22;;;21.95;;
22648;SDS011;11491;41.942;24.220;2023-03-19T03:00:13;54.28;;;23.48;;
22648;SDS011;11491;41.942;24.220;2023-03-19T03:02:43;48.67;;;23.08;;
22648;SDS011;11491;41.942;24.220;2023-03-19T03:05:10;50.03;;;23.80;;
22648;SDS011;11491;41.942;24.220;2023-03-19T03:07:37;49.22;;;23.08;;
22648;SDS011;11491;41.942;24.220;2023-03-19T03:10:05;47.70;;;22.17;;
22648;SDS011;11491;41.942;24.220;2023-03-19T03:12:32;39.63;;;18.70;;
22648;SDS011;11491;41.942;24.220;2023-03-19T03:14:59;38.07;;;15.67;;
22648;SDS011;11491;41.942;24.220;2023-03-19T03:17:26;35.00;;;12.93;;
22648;SDS011;11491;41.942;24.220;2023-03-19T03:19:54;23.53;;;12.00;;
22648;SDS011;11491;41.942;24.220;2023-03-19T03:22:21;24.70;;;12.60;;
22648;SDS011;11491;41.942;24.220;2023-03-19T03:24:47;25.53;;;13.07;;
22648;SDS011;11491;41.942;24.220;2023-03-19T03:27:14;23.43;;;11.97;;
22648;SDS011;11491;41.942;24.220;2023-03-19T03:29:41;23.07;;;10.73;;
22648;SDS011;11491;41.942;24.220;2023-03-19T03:32:08;18.33;;;9.53;;
22648;SDS011;11491;41.942;24.220;2023-03-19T03:34:35;19.70;;;10.33;;
22648;SDS011;11491;41.942;24.220;2023-03-19T03:37:03;16.92;;;9.27;;
22648;SDS011;11491;41.942;24.220;2023-03-19T03:39:30;13.77;;;8.00;;
22648;SDS011;11491;41.942;24.220;2023-03-19T03:41:57;13.48;;;7.80;;
22648;SDS011;11491;41.942;24.220;2023-03-19T03:44:24;17.45;;;9.80;;
22648;SDS011;11491;41.942;24.220;2023-03-19T03:46:51;18.75;;;12.10;;
22648;SDS011;11491;41.942;24.220;2023-03-19T03:49:18;16.20;;;10.55;;
22648;SDS011;11491;41.942;24.220;2023-03-19T03:51:45;19.45;;;11.73;;
22648;SDS011;11491;41.942;24.220;2023-03-19T03:54:13;15.33;;;9.17;;
22648;SDS011;11491;41.942;24.220;2023-03-19T03:56:40;16.13;;;8.43;;
22648;SDS011;11491;41.942;24.220;2023-03-19T03:59:07;10.73;;;7.67;;
22648;SDS011;11491;41.942;24.220;2023-03-19T04:01:34;9.65;;;5.65;;
22648;SDS011;11491;41.942;24.220;2023-03-19T04:04:01;8.00;;;5.50;;
22648;SDS011;11491;41.942;24.220;2023-03-19T04:06:28;10.27;;;6.17;;
22648;SDS011;11491;41.942;24.220;2023-03-19T04:08:55;15.23;;;7.70;;
22648;SDS011;11491;41.942;24.220;2023-03-19T04:11:23;13.13;;;9.68;;
22648;SDS011;11491;41.942;24.220;2023-03-19T04:13:50;17.40;;;8.77;;
22648;SDS011;11491;41.942;24.220;2023-03-19T04:16:16;15.25;;;10.80;;
22648;SDS011;11491;41.942;24.220;2023-03-19T04:18:43;26.20;;;20.08;;
22648;SDS011;11491;41.942;24.220;2023-03-19T04:21:10;33.97;;;24.88;;
22648;SDS011;11491;41.942;24.220;2023-03-19T04:23:37;27.85;;;21.50;;
22648;SDS011;11491;41.942;24.220;2023-03-19T04:26:04;31.38;;;23.90;;
22648;SDS011;11491;41.942;24.220;2023-03-19T04:28:33;27.45;;;19.25;;
22648;SDS011;11491;41.942;24.220;2023-03-19T04:31:00;28.98;;;20.42;;
22648;SDS011;11491;41.942;24.220;2023-03-19T04:33:28;35.30;;;22.35;;
22648;SDS011;11491;41.942;24.220;2023-03-19T04:35:56;35.90;;;22.83;;
22648;SDS011;11491;41.942;24.220;2023-03-19T04:38:23;36.88;;;23.45;;
22648;SDS011;11491;41.942;24.220;2023-03-19T04:40:52;32.55;;;21.90;;
22648;SDS011;11491;41.942;24.220;2023-03-19T04:43:19;54.35;;;29.92;;
22648;SDS011;11491;41.942;24.220;2023-03-19T04:45:47;33.35;;;21.27;;
22648;SDS011;11491;41.942;24.220;2023-03-19T04:48:14;33.05;;;21.80;;
22648;SDS011;11491;41.942;24.220;2023-03-19T04:50:42;33.20;;;19.98;;
22648;SDS011;11491;41.942;24.220;2023-03-19T04:53:09;36.35;;;22.58;;
22648;SDS011;11491;41.942;24.220;2023-03-19T04:55:37;55.58;;;33.58;;
22648;SDS011;11491;41.942;24.220;2023-03-19T04:58:04;32.50;;;20.35;;
22648;SDS011;11491;41.942;24.220;2023-03-19T05:00:30;38.30;;;25.75;;
22648;SDS011;11491;41.942;24.220;2023-03-19T05:02:58;32.42;;;20.58;;
22648;SDS011;11491;41.942;24.220;2023-03-19T05:05:25;40.13;;;24.98;;
22648;SDS011;11491;41.942;24.220;2023-03-19T05:07:52;24.92;;;17.23;;
22648;SDS011;11491;41.942;24.220;2023-03-19T05:10:19;26.98;;;17.75;;
22648;SDS011;11491;41.942;24.220;2023-03-19T05:12:46;52.17;;;32.47;;
22648;SDS011;11491;41.942;24.220;2023-03-19T05:15:13;73.88;;;41.63;;
22648;SDS011;11491;41.942;24.220;2023-03-19T05:17:40;65.97;;;40.05;;
22648;SDS011;11491;41.942;24.220;2023-03-19T05:20:09;41.78;;;28.08;;
22648;SDS011;11491;41.942;24.220;2023-03-19T05:22:37;45.35;;;28.77;;
22648;SDS011;11491;41.942;24.220;2023-03-19T05:25:04;44.70;;;29.13;;
22648;SDS011;11491;41.942;24.220;2023-03-19T05:27:31;49.70;;;31.90;;
22648;SDS011;11491;41.942;24.220;2023-03-19T05:29:58;49.13;;;32.70;;
22648;SDS011;11491;41.942;24.220;2023-03-19T05:32:25;53.10;;;33.53;;
22648;SDS011;11491;41.942;24.220;2023-03-19T05:34:52;51.15;;;33.60;;
22648;SDS011;11491;41.942;24.220;2023-03-19T05:37:20;61.67;;;37.28;;
22648;SDS011;11491;41.942;24.220;2023-03-19T05:39:47;81.90;;;51.72;;
22648;SDS011;11491;41.942;24.220;2023-03-19T05:42:14;73.72;;;44.42;;
22648;SDS011;11491;41.942;24.220;2023-03-19T05:44:40;76.40;;;49.00;;
22648;SDS011;11491;41.942;24.220;2023-03-19T05:47:08;103.20;;;64.75;;
22648;SDS011;11491;41.942;24.220;2023-03-19T05:49:36;108.05;;;66.78;;
22648;SDS011;11491;41.942;24.220;2023-03-19T05:52:03;150.90;;;91.72;;
22648;SDS011;11491;41.942;24.220;2023-03-19T05:54:31;126.35;;;78.78;;
22648;SDS011;11491;41.942;24.220;2023-03-19T05:56:58;116.95;;;73.65;;
22648;SDS011;11491;41.942;24.220;2023-03-19T05:59:25;74.07;;;49.80;;
22648;SDS011;11491;41.942;24.220;2023-03-19T06:01:52;61.50;;;42.40;;
22648;SDS011;11491;41.942;24.220;2023-03-19T06:04:19;72.10;;;47.22;;
22648;SDS011;11491;41.942;24.220;2023-03-19T06:06:45;41.58;;;27.25;;
22648;SDS011;11491;41.942;24.220;2023-03-19T06:09:12;38.25;;;24.95;;
22648;SDS011;11491;41.942;24.220;2023-03-19T06:11:40;91.15;;;45.25;;
22648;SDS011;11491;41.942;24.220;2023-03-19T06:14:07;70.35;;;38.28;;
22648;SDS011;11491;41.942;24.220;2023-03-19T06:16:34;70.45;;;41.78;;
22648;SDS011;11491;41.942;24.220;2023-03-19T06:19:01;59.72;;;37.47;;
22648;SDS011;11491;41.942;24.220;2023-03-19T06:21:28;59.55;;;34.47;;
22648;SDS011;11491;41.942;24.220;2023-03-19T06:23:55;55.70;;;33.08;;
22648;SDS011;11491;41.942;24.220;2023-03-19T06:26:22;70.78;;;38.55;;
22648;SDS011;11491;41.942;24.220;2023-03-19T06:28:53;77.18;;;39.80;;
22648;SDS011;11491;41.942;24.220;2023-03-19T06:31:20;74.28;;;40.03;;
22648;SDS011;11491;41.942;24.220;2023-03-19T06:33:47;89.28;;;48.00;;
22648;SDS011;11491;41.942;24.220;2023-03-19T06:36:14;87.43;;;50.17;;
22648;SDS011;11491;41.942;24.220;2023-03-19T06:38:41;83.75;;;48.78;;
22648;SDS011;11491;41.942;24.220;2023-03-19T06:41:08;82.78;;;47.30;;
22648;SDS011;11491;41.942;24.220;2023-03-19T06:43:35;77.00;;;49.92;;
22648;SDS011;11491;41.942;24.220;2023-03-19T06:46:03;71.25;;;46.95;;
22648;SDS011;11491;41.942;24.220;2023-03-19T06:48:31;64.97;;;42.90;;
22648;SDS011;11491;41.942;24.220;2023-03-19T06:50:58;70.22;;;44.08;;
22648;SDS011;11491;41.942;24.220;2023-03-19T06:53:25;41.20;;;28.55;;
22648;SDS011;11491;41.942;24.220;2023-03-19T06:55:52;43.08;;;29.50;;
22648;SDS011;11491;41.942;24.220;2023-03-19T06:58:20;34.65;;;24.23;;
22648;SDS011;11491;41.942;24.220;2023-03-19T07:00:46;40.38;;;29.17;;
22648;SDS011;11491;41.942;24.220;2023-03-19T07:03:14;41.85;;;31.42;;
22648;SDS011;11491;41.942;24.220;2023-03-19T07:05:41;55.90;;;40.05;;
22648;SDS011;11491;41.942;24.220;2023-03-19T07:08:08;54.08;;;41.03;;
22648;SDS011;11491;41.942;24.220;2023-03-19T07:10:36;50.65;;;37.92;;
22648;SDS011;11491;41.942;24.220;2023-03-19T07:13:03;57.15;;;37.63;;
22648;SDS011;11491;41.942;24.220;2023-03-19T07:15:30;39.00;;;29.98;;
22648;SDS011;11491;41.942;24.220;2023-03-19T07:17:57;12.98;;;10.20;;
22648;SDS011;11491;41.942;24.220;2023-03-19T07:20:25;7.05;;;5.20;;
22648;SDS011;11491;41.942;24.220;2023-03-19T07:22:52;11.30;;;9.35;;
22648;SDS011;11491;41.942;24.220;2023-03-19T07:25:19;6.20;;;4.80;;
22648;SDS011;11491;41.942;24.220;2023-03-19T07:27:46;4.32;;;3.83;;
22648;SDS011;11491;41.942;24.220;2023-03-19T07:30:13;4.13;;;3.00;;
22648;SDS011;11491;41.942;24.220;2023-03-19T07:32:40;5.43;;;4.85;;
22648;SDS011;11491;41.942;24.220;2023-03-19T07:35:08;3.83;;;3.15;;
22648;SDS011;11491;41.942;24.220;2023-03-19T07:37:36;3.47;;;2.85;;
22648;SDS011;11491;41.942;24.220;2023-03-19T07:40:04;8.35;;;4.95;;
22648;SDS011;11491;41.942;24.220;2023-03-19T07:42:31;6.85;;;6.15;;
22648;SDS011;11491;41.942;24.220;2023-03-19T07:45:00;2.42;;;2.08;;
22648;SDS011;11491;41.942;24.220;2023-03-19T07:47:27;3.72;;;2.95;;
22648;SDS011;11491;41.942;24.220;2023-03-19T07:49:54;3.72;;;3.13;;
22648;SDS011;11491;41.942;24.220;2023-03-19T07:52:21;1.48;;;1.15;;
22648;SDS011;11491;41.942;24.220;2023-03-19T07:54:50;2.50;;;1.70;;
22648;SDS011;11491;41.942;24.220;2023-03-19T07:57:17;4.13;;;2.90;;
22648;SDS011;11491;41.942;24.220;2023-03-19T07:59:43;5.53;;;4.10;;
22648;SDS011;11491;41.942;24.220;2023-03-19T08:02:10;5.38;;;3.50;;
22648;SDS011;11491;41.942;24.220;2023-03-19T08:04:38;4.05;;;3.25;;
22648;SDS011;11491;41.942;24.220;2023-03-19T08:07:05;3.67;;;2.83;;
22648;SDS011;11491;41.942;24.220;2023-03-19T08:09:34;3.63;;;2.60;;
22648;SDS011;11491;41.942;24.220;2023-03-19T08:12:03;5.18;;;3.50;;
22648;SDS011;11491;41.942;24.220;2023-03-19T08:14:30;4.95;;;3.33;;
22648;SDS011;11491;41.942;24.220;2023-03-19T08:16:57;5.85;;;4.30;;
22648;SDS011;11491;41.942;24.220;2023-03-19T08:19:24;4.68;;;3.67;;
22648;SDS011;11491;41.942;24.220;2023-03-19T08:21:51;13.63;;;8.38;;
22648;SDS011;11491;41.942;24.220;2023-03-19T08:24:17;12.45;;;8.20;;
22648;SDS011;11491;41.942;24.220;2023-03-19T08:26:44;4.80;;;3.45;;
22648;SDS011;11491;41.942;24.220;2023-03-19T08:29:13;4.93;;;4.00;;
22648;SDS011;11491;41.942;24.220;2023-03-19T08:31:39;5.55;;;3.45;;
22648;SDS011;11491;41.942;24.220;2023-03-19T08:34:07;5.15;;;3.53;;
22648;SDS011;11491;41.942;24.220;2023-03-19T08:36:34;3.28;;;2.70;;
22648;SDS011;11491;41.942;24.220;2023-03-19T08:39:01;17.13;;;12.32;;
22648;SDS011;11491;41.942;24.220;2023-03-19T08:41:28;8.10;;;5.70;;
22648;SDS011;11491;41.942;24.220;2023-03-19T08:43:55;15.90;;;8.70;;
22648;SDS011;11491;41.942;24.220;2023-03-19T08:46:24;8.63;;;6.68;;
22648;SDS011;11491;41.942;24.220;2023-03-19T08:48:51;5.88;;;3.13;;
22648;SDS011;11491;41.942;24.220;2023-03-19T08:51:18;6.07;;;2.92;;
22648;SDS011;11491;41.942;24.220;2023-03-19T08:53:45;3.63;;;2.78;;
22648;SDS011;11491;41.942;24.220;2023-03-19T08:56:12;6.00;;;4.55;;
22648;SDS011;11491;41.942;24.220;2023-03-19T08:58:38;7.32;;;5.25;;
22648;SDS011;11491;41.942;24.220;2023-03-19T09:01:07;3.80;;;2.80;;
22648;SDS011;11491;41.942;24.220;2023-03-19T09:03:37;5.30;;;4.22;;
22648;SDS011;11491;41.942;24.220;2023-03-19T09:06:06;8.65;;;4.65;;
22648;SDS011;11491;41.942;24.220;2023-03-19T09:08:35;3.47;;;2.08;;
22648;SDS011;11491;41.942;24.220;2023-03-19T09:11:03;2.47;;;1.90;;
22648;SDS011;11491;41.942;24.220;2023-03-19T09:13:31;1.83;;;1.20;;
22648;SDS011;11491;41.942;24.220;2023-03-19T09:15:58;5.05;;;4.20;;
22648;SDS011;11491;41.942;24.220;2023-03-19T09:18:25;4.93;;;3.53;;
22648;SDS011;11491;41.942;24.220;2023-03-19T09:20:53;5.07;;;3.33;;
22648;SDS011;11491;41.942;24.220;2023-03-19T09:23:20;5.50;;;2.88;;
22648;SDS011;11491;41.942;24.220;2023-03-19T09:25:48;8.10;;;5.20;;
22648;SDS011;11491;41.942;24.220;2023-03-19T09:28:15;6.72;;;3.92;;
22648;SDS011;11491;41.942;24.220;2023-03-19T09:30:44;4.45;;;2.53;;
22648;SDS011;11491;41.942;24.220;2023-03-19T09:33:11;5.75;;;5.18;;
22648;SDS011;11491;41.942;24.220;2023-03-19T09:35:38;7.00;;;3.58;;
22648;SDS011;11491;41.942;24.220;2023-03-19T09:38:07;5.03;;;3.58;;
22648;SDS011;11491;41.942;24.220;2023-03-19T09:40:35;10.10;;;4.28;;
22648;SDS011;11491;41.942;24.220;2023-03-19T09:43:08;2.17;;;1.33;;
22648;SDS011;11491;41.942;24.220;2023-03-19T09:45:54;2.25;;;1.60;;
22648;SDS011;11491;41.942;24.220;2023-03-19T09:48:24;3.08;;;2.17;;
22648;SDS011;11491;41.942;24.220;2023-03-19T09:50:59;3.15;;;1.40;;
22648;SDS011;11491;41.942;24.220;2023-03-19T09:53:32;2.13;;;1.30;;
22648;SDS011;11491;41.942;24.220;2023-03-19T09:56:09;3.17;;;1.67;;
22648;SDS011;11491;41.942;24.220;2023-03-19T09:58:40;2.25;;;1.15;;
22648;SDS011;11491;41.942;24.220;2023-03-19T10:01:10;6.95;;;3.63;;
22648;SDS011;11491;41.942;24.220;2023-03-19T10:03:51;10.43;;;8.70;;
22648;SDS011;11491;41.942;24.220;2023-03-19T10:06:35;5.50;;;4.90;;
22648;SDS011;11491;41.942;24.220;2023-03-19T10:12:04;4.03;;;3.10;;
22648;SDS011;11491;41.942;24.220;2023-03-19T10:14:54;5.60;;;5.10;;
22648;SDS011;11491;41.942;24.220;2023-03-19T10:17:36;5.22;;;2.70;;
22648;SDS011;11491;41.942;24.220;2023-03-19T10:20:11;4.93;;;3.70;;
22648;SDS011;11491;41.942;24.220;2023-03-19T10:22:43;43.90;;;26.30;;
22648;SDS011;11491;41.942;24.220;2023-03-19T10:25:15;2.40;;;1.60;;
22648;SDS011;11491;41.942;24.220;2023-03-19T10:27:47;8.77;;;5.00;;
22648;SDS011;11491;41.942;24.220;2023-03-19T10:30:19;7.47;;;5.95;;
22648;SDS011;11491;41.942;24.220;2023-03-19T10:32:47;18.80;;;13.60;;
22648;SDS011;11491;41.942;24.220;2023-03-19T10:35:20;20.40;;;9.15;;
22648;SDS011;11491;41.942;24.220;2023-03-19T10:37:49;11.88;;;7.82;;
22648;SDS011;11491;41.942;24.220;2023-03-19T10:40:21;11.13;;;6.18;;
22648;SDS011;11491;41.942;24.220;2023-03-19T10:43:00;9.23;;;7.07;;
22648;SDS011;11491;41.942;24.220;2023-03-19T10:45:32;16.13;;;11.85;;
22648;SDS011;11491;41.942;24.220;2023-03-19T10:48:01;14.98;;;9.27;;
22648;SDS011;11491;41.942;24.220;2023-03-19T10:50:30;14.70;;;12.32;;
22648;SDS011;11491;41.942;24.220;2023-03-19T10:53:02;5.30;;;3.50;;
22648;SDS011;11491;41.942;24.220;2023-03-19T10:55:33;8.32;;;4.00;;
22648;SDS011;11491;41.942;24.220;2023-03-19T10:58:01;6.10;;;3.20;;
22648;SDS011;11491;41.942;24.220;2023-03-19T11:00:29;6.90;;;5.55;;
22648;SDS011;11491;41.942;24.220;2023-03-19T11:02:57;4.30;;;3.25;;
22648;SDS011;11491;41.942;24.220;2023-03-19T11:05:29;7.53;;;4.95;;
22648;SDS011;11491;41.942;24.220;2023-03-19T11:07:57;4.00;;;2.88;;
22648;SDS011;11491;41.942;24.220;2023-03-19T11:10:27;16.58;;;11.23;;
22648;SDS011;11491;41.942;24.220;2023-03-19T11:12:57;19.02;;;12.15;;
22648;SDS011;11491;41.942;24.220;2023-03-19T11:15:27;9.23;;;5.82;;
22648;SDS011;11491;41.942;24.220;2023-03-19T11:17:58;18.33;;;9.93;;
22648;SDS011;11491;41.942;24.220;2023-03-19T11:20:27;13.18;;;8.13;;
22648;SDS011;11491;41.942;24.220;2023-03-19T11:22:57;11.43;;;8.18;;
22648;SDS011;11491;41.942;24.220;2023-03-19T11:25:27;12.25;;;9.35;;
22648;SDS011;11491;41.942;24.220;2023-03-19T11:28:01;12.30;;;8.75;;
22648;SDS011;11491;41.942;24.220;2023-03-19T11:30:34;20.40;;;12.90;;
22648;SDS011;11491;41.942;24.220;2023-03-19T11:36:22;11.77;;;7.47;;
22648;SDS011;11491;41.942;24.220;2023-03-19T11:39:02;17.20;;;10.40;;
22648;SDS011;11491;41.942;24.220;2023-03-19T11:41:47;14.82;;;9.38;;
22648;SDS011;11491;41.942;24.220;2023-03-19T11:44:25;14.50;;;8.15;;
22648;SDS011;11491;41.942;24.220;2023-03-19T11:46:59;27.77;;;17.33;;
22648;SDS011;11491;41.942;24.220;2023-03-19T11:49:35;26.63;;;14.32;;
22648;SDS011;11491;41.942;24.220;2023-03-19T11:52:17;54.10;;;29.10;;
22648;SDS011;11491;41.942;24.220;2023-03-19T11:55:00;20.10;;;12.50;;
22648;SDS011;11491;41.942;24.220;2023-03-19T11:57:45;27.88;;;18.85;;
22648;SDS011;11491;41.942;24.220;2023-03-19T12:00:27;17.50;;;13.38;;
22648;SDS011;11491;41.942;24.220;2023-03-19T12:06:12;7.03;;;6.07;;
22648;SDS011;11491;41.942;24.220;2023-03-19T12:08:48;12.73;;;9.05;;
22648;SDS011;11491;41.942;24.220;2023-03-19T12:11:22;6.65;;;4.32;;
22648;SDS011;11491;41.942;24.220;2023-03-19T12:13:58;22.95;;;11.63;;
22648;SDS011;11491;41.942;24.220;2023-03-19T12:16:42;23.48;;;18.00;;
22648;SDS011;11491;41.942;24.220;2023-03-19T12:19:40;30.60;;;20.83;;
22648;SDS011;11491;41.942;24.220;2023-03-19T12:22:23;28.25;;;21.10;;
22648;SDS011;11491;41.942;24.220;2023-03-19T12:25:07;13.43;;;9.88;;
22648;SDS011;11491;41.942;24.220;2023-03-19T12:27:47;23.55;;;14.90;;
22648;SDS011;11491;41.942;24.220;2023-03-19T12:30:22;20.73;;;15.68;;
22648;SDS011;11491;41.942;24.220;2023-03-19T12:33:01;17.98;;;13.10;;
22648;SDS011;11491;41.942;24.220;2023-03-19T12:35:36;7.03;;;5.47;;
22648;SDS011;11491;41.942;24.220;2023-03-19T12:38:07;16.85;;;12.15;;
22648;SDS011;11491;41.942;24.220;2023-03-19T12:40:39;8.98;;;5.68;;
22648;SDS011;11491;41.942;24.220;2023-03-19T12:43:12;26.20;;;19.52;;
22648;SDS011;11491;41.942;24.220;2023-03-19T12:48:13;18.45;;;12.57;;
22648;SDS011;11491;41.942;24.220;2023-03-19T12:50:45;8.73;;;5.28;;
22648;SDS011;11491;41.942;24.220;2023-03-19T12:53:17;9.27;;;6.05;;
22648;SDS011;11491;41.942;24.220;2023-03-19T12:55:54;9.82;;;5.50;;
22648;SDS011;11491;41.942;24.220;2023-03-19T12:58:28;17.70;;;13.50;;
22648;SDS011;11491;41.942;24.220;2023-03-19T13:01:04;7.10;;;4.80;;
22648;SDS011;11491;41.942;24.220;2023-03-19T13:03:38;12.23;;;6.40;;
22648;SDS011;11491;41.942;24.220;2023-03-19T13:06:14;12.52;;;10.05;;
22648;SDS011;11491;41.942;24.220;2023-03-19T13:08:47;6.75;;;5.40;;
22648;SDS011;11491;41.942;24.220;2023-03-19T13:11:18;27.33;;;22.60;;
22648;SDS011;11491;41.942;24.220;2023-03-19T13:13:55;20.20;;;12.95;;
22648;SDS011;11491;41.942;24.220;2023-03-19T13:16:29;13.38;;;9.52;;
22648;SDS011;11491;41.942;24.220;2023-03-19T13:19:06;9.23;;;6.28;;
22648;SDS011;11491;41.942;24.220;2023-03-19T13:21:39;8.20;;;5.03;;
22648;SDS011;11491;41.942;24.220;2023-03-19T13:24:11;23.52;;;11.82;;
22648;SDS011;11491;41.942;24.220;2023-03-19T13:26:45;14.40;;;7.57;;
22648;SDS011;11491;41.942;24.220;2023-03-19T13:29:15;5.50;;;3.30;;
22648;SDS011;11491;41.942;24.220;2023-03-19T13:31:45;28.33;;;19.08;;
22648;SDS011;11491;41.942;24.220;2023-03-19T13:34:19;22.67;;;17.23;;
22648;SDS011;11491;41.942;24.220;2023-03-19T13:36:51;12.43;;;9.65;;
22648;SDS011;11491;41.942;24.220;2023-03-19T13:39:24;12.68;;;10.40;;
22648;SDS011;11491;41.942;24.220;2023-03-19T13:41:56;14.82;;;11.20;;
22648;SDS011;11491;41.942;24.220;2023-03-19T13:44:35;13.05;;;9.43;;
22648;SDS011;11491;41.942;24.220;2023-03-19T13:50:24;12.57;;;7.35;;
22648;SDS011;11491;41.942;24.220;2023-03-19T13:53:10;14.23;;;9.75;;
22648;SDS011;11491;41.942;24.220;2023-03-19T13:55:50;11.35;;;9.57;;
22648;SDS011;11491;41.942;24.220;2023-03-19T13:58:20;13.30;;;10.23;;
22648;SDS011;11491;41.942;24.220;2023-03-19T14:01:08;8.13;;;6.20;;
22648;SDS011;11491;41.942;24.220;2023-03-19T14:03:37;10.05;;;8.25;;
22648;SDS011;11491;41.942;24.220;2023-03-19T14:06:11;12.65;;;7.57;;
22648;SDS011;11491;41.942;24.220;2023-03-19T14:08:56;13.63;;;7.88;;
22648;SDS011;11491;41.942;24.220;2023-03-19T14:11:24;11.80;;;8.63;;
22648;SDS011;11491;41.942;24.220;2023-03-19T14:13:56;9.48;;;7.38;;
22648;SDS011;11491;41.942;24.220;2023-03-19T14:16:29;25.35;;;11.82;;
22648;SDS011;11491;41.942;24.220;2023-03-19T14:18:59;14.63;;;11.93;;
22648;SDS011;11491;41.942;24.220;2023-03-19T14:21:32;24.65;;;18.60;;
22648;SDS011;11491;41.942;24.220;2023-03-19T14:24:19;15.20;;;12.85;;
22648;SDS011;11491;41.942;24.220;2023-03-19T14:26:56;10.55;;;8.05;;
22648;SDS011;11491;41.942;24.220;2023-03-19T14:29:26;16.02;;;12.98;;
22648;SDS011;11491;41.942;24.220;2023-03-19T14:31:54;10.25;;;8.32;;
22648;SDS011;11491;41.942;24.220;2023-03-19T14:34:25;13.50;;;10.30;;
22648;SDS011;11491;41.942;24.220;2023-03-19T14:36:59;12.63;;;10.43;;
22648;SDS011;11491;41.942;24.220;2023-03-19T14:39:28;13.30;;;11.50;;
22648;SDS011;11491;41.942;24.220;2023-03-19T14:41:59;10.27;;;8.48;;
22648;SDS011;11491;41.942;24.220;2023-03-19T14:47:49;12.60;;;8.90;;
22648;SDS011;11491;41.942;24.220;2023-03-19T14:53:33;22.95;;;18.52;;
22648;SDS011;11491;41.942;24.220;2023-03-19T14:56:09;11.85;;;8.57;;